Esther Spirit — C6FY6 — position and weather

sailwx.info

Track history (hours):
 
Tides and Currents Weather Stations Pressure Air Temp Water Temp Dewpoint Dewpoint Depression Visibility Wind Speed Wind Dir Waves Ship Positions

Esther Spirit

Last reported at 2018-Feb-22 23:00 UTC. Time now 2018-Feb-22 23:02 UTC.
Position N 39°35' W 075°35'.

Length 249 m; draft 8.5 m.

Type: Tanker. MMSI: 311646000.

Date/timePositionNaut miles runAvg speedWind from/ knotsBaromVisibWave heightAir tempDewpointWater temp
2018-Feb-22 23:00N 39°35' W 075°35'3 5.8
2018-Feb-22 22:30N 39°33' W 075°32'3 5.4
2018-Feb-22 22:00N 39°30' W 075°33'3 6.8
2018-Feb-22 21:30N 39°27' W 075°33'5 9.3
2018-Feb-22 21:00N 39°23' W 075°29'5 9.8
2018-Feb-22 20:30N 39°20' W 075°25'5 9.8
2018-Feb-22 20:00N 39°16' W 075°20'5 9.6
2018-Feb-22 19:30N 39°12' W 075°17'5 9.6
2018-Feb-22 19:00N 39°08' W 075°14'612.4
2018-Feb-22 18:30N 39°03' W 075°10'714.4
2018-Feb-22 18:00N 38°56' W 075°06'3 5.4
2018-Feb-22 17:30N 38°54' W 075°09'511.1
2018-Feb-22 17:00N 38°59' W 075°13'0 0.8
2018-Feb-22 16:26N 38°59' W 075°13'0 0.1
2018-Feb-22 15:59N 38°59' W 075°13'0 0.1
2018-Feb-22 15:29N 38°59' W 075°13'0 0.1
2018-Feb-22 14:59N 38°59' W 075°13'0 0.0
2018-Feb-22 14:29N 38°59' W 075°13'0 0.3
2018-Feb-22 13:56N 38°59' W 075°13'0 0.2
2018-Feb-22 13:29N 38°59' W 075°13'0 0.1
2018-Feb-22 12:59N 38°59' W 075°13'0 0.1
2018-Feb-22 12:29N 38°59' W 075°13'0 0.0
2018-Feb-22 11:56N 38°59' W 075°13'0 0.0
2018-Feb-22 11:26N 38°59' W 075°13'0 0.0
2018-Feb-22 10:59N 38°59' W 075°13'0 0.0
2018-Feb-22 10:26N 38°59' W 075°13'0 0.0
2018-Feb-22 09:59N 38°59' W 075°13'0 0.0
2018-Feb-22 09:23N 38°59' W 075°13'0 0.0
2018-Feb-22 08:59N 38°59' W 075°13'0 0.1
2018-Feb-22 08:29N 38°59' W 075°13'0 0.4
2018-Feb-22 07:59N 38°59' W 075°13'0 0.2
2018-Feb-22 07:29N 38°59' W 075°13'0 0.1
2018-Feb-22 06:56N 38°59' W 075°13'0 0.0
2018-Feb-22 04:35N 38°59' W 075°13'0 0.0
2018-Feb-22 04:17N 38°59' W 075°13'0 0.1
2018-Feb-22 03:59N 38°59' W 075°13'0 0.0
2018-Feb-22 03:02N 38°59' W 075°13'0 0.0
2018-Feb-22 02:59N 38°59' W 075°13'0 0.1
2018-Feb-22 02:20N 38°59' W 075°13'0 0.3
2018-Feb-22 01:50N 38°59' W 075°13'0 0.3
2018-Feb-22 01:29N 38°59' W 075°13'0 0.1
2018-Feb-22 00:59N 38°59' W 075°13'0 0.1
2018-Feb-22 00:29N 38°59' W 075°13'0 0.0
2018-Feb-21 23:59N 38°59' W 075°13'0 0.0
2018-Feb-21 23:29N 38°59' W 075°13'0 0.0
2018-Feb-21 22:59N 38°59' W 075°13'0 0.1
2018-Feb-21 22:29N 38°59' W 075°13'0 0.0
2018-Feb-21 21:56N 38°59' W 075°13'0 0.0
2018-Feb-21 21:29N 38°59' W 075°13'0 0.0
2018-Feb-21 20:59N 38°59' W 075°13'0 0.1
2018-Feb-21 20:20N 38°59' W 075°13'0 0.1
2018-Feb-21 19:20N 38°59' W 075°13'0 0.2
2018-Feb-21 18:59N 38°59' W 075°13'0 0.1
2018-Feb-21 18:26N 38°59' W 075°13'0 0.0
2018-Feb-21 17:56N 38°59' W 075°13'0 0.0
2018-Feb-21 13:34N 38°59' W 075°13'0 0.3
2018-Feb-21 13:28N 38°59' W 075°13'0 0.1
2018-Feb-21 12:43N 38°59' W 075°13'0 0.3
2018-Feb-21 12:28N 38°59' W 075°13'0 0.1
2018-Feb-21 11:58N 38°59' W 075°13'0 0.1
2018-Feb-21 11:25N 38°59' W 075°13'0 0.1
2018-Feb-21 10:58N 38°59' W 075°13'0 0.0
2018-Feb-21 10:28N 38°59' W 075°13'0 0.0
2018-Feb-21 09:58N 38°59' W 075°13'0 0.1
2018-Feb-21 09:28N 38°59' W 075°13'0 0.0
2018-Feb-21 08:58N 38°59' W 075°13'0 0.0
2018-Feb-21 08:28N 38°59' W 075°13'0 0.2
2018-Feb-21 07:52N 38°59' W 075°13'0 0.4
2018-Feb-21 07:25N 38°59' W 075°13'0 0.1
2018-Feb-21 06:10N 38°59' W 075°13'0 0.0
2018-Feb-21 03:40N 38°59' W 075°13'0 0.1
2018-Feb-21 03:28N 38°59' W 075°13'0 0.0
2018-Feb-21 02:55N 38°59' W 075°13'0 0.0
2018-Feb-21 02:10N 38°59' W 075°13'0 0.1
2018-Feb-21 01:55N 38°59' W 075°13'0 0.1
2018-Feb-21 01:25N 38°59' W 075°13'0 0.3
2018-Feb-21 00:52N 38°59' W 075°13'0 0.2
2018-Feb-21 00:10N 38°59' W 075°13'0 0.1
2018-Feb-20 23:58N 38°59' W 075°13'0 0.0
2018-Feb-20 23:28N 38°59' W 075°13'0 0.1
2018-Feb-20 22:58N 38°59' W 075°13'0 0.0
2018-Feb-20 22:28N 38°59' W 075°13'0 0.0
2018-Feb-20 21:58N 38°59' W 075°13'0 0.0
2018-Feb-20 21:28N 38°59' W 075°13'0 0.1
2018-Feb-20 20:55N 38°59' W 075°13'0 0.0
2018-Feb-20 20:28N 38°59' W 075°13'0 0.1
2018-Feb-20 19:58N 38°59' W 075°13'0 0.1
2018-Feb-20 19:10N 38°59' W 075°13'0 0.4
2018-Feb-20 18:55N 38°59' W 075°13'0 0.2
2018-Feb-20 18:28N 38°59' W 075°13'0 0.0
2018-Feb-20 17:01N 38°59' W 075°13'0 0.0
2018-Feb-20 16:58N 38°59' W 075°13'0 0.0
2018-Feb-20 15:28N 38°59' W 075°13'0 0.0
2018-Feb-20 14:58N 38°59' W 075°13'0 0.1
2018-Feb-20 14:13N 38°59' W 075°13'0 0.2
2018-Feb-20 13:58N 38°59' W 075°13'0 0.0
2018-Feb-20 13:10N 38°59' W 075°13'0 0.2
2018-Feb-20 12:55N 38°59' W 075°13'0 0.3
2018-Feb-20 12:25N 38°59' W 075°13'0 0.1
2018-Feb-20 11:40N 38°59' W 075°13'0 0.0
2018-Feb-20 11:28N 38°59' W 075°13'0 0.1
2018-Feb-20 10:58N 38°59' W 075°13'0 0.1
2018-Feb-20 10:28N 38°59' W 075°13'0 0.0
2018-Feb-20 09:58N 38°59' W 075°13'0 0.0
2018-Feb-20 09:25N 38°59' W 075°13'0 0.1
2018-Feb-20 08:58N 38°59' W 075°13'0 0.0
2018-Feb-20 08:22N 38°59' W 075°13'0 0.0
2018-Feb-20 07:55N 38°59' W 075°13'0 0.0
2018-Feb-20 07:31N 38°59' W 075°13'0 0.1
2018-Feb-20 07:00N 38°59' W 075°13'0 0.2
2018-Feb-20 06:18N 38°59' W 075°13'0 0.3
2018-Feb-20 05:57N 38°59' W 075°13'0 0.0
2018-Feb-20 03:00N 38°59' W 075°13'0 0.0
2018-Feb-20 02:03N 38°59' W 075°13'0 0.0
2018-Feb-20 01:48N 38°59' W 075°13'0 0.0
2018-Feb-20 01:30N 38°59' W 075°13'0 0.1
2018-Feb-19 23:09N 38°59' W 075°13'0 0.1
2018-Feb-19 23:00N 38°59' W 075°13'0 0.1
2018-Feb-19 22:21N 38°59' W 075°13'0 0.0
2018-Feb-19 22:00N 38°59' W 075°13'0 0.0
2018-Feb-19 21:18N 38°59' W 075°13'0 0.1
2018-Feb-19 21:00N 38°59' W 075°13'0 0.0
2018-Feb-19 20:30N 38°59' W 075°13'0 0.0
2018-Feb-19 20:00N 38°59' W 075°13'0 0.0
2018-Feb-19 19:30N 38°59' W 075°13'0 0.0
2018-Feb-19 18:57N 38°59' W 075°13'0 0.2
2018-Feb-19 17:09N 38°59' W 075°13'0 0.1
2018-Feb-19 16:48N 38°59' W 075°13'0 0.0
2018-Feb-19 16:24N 38°59' W 075°13'0 0.0
2018-Feb-19 15:54N 38°59' W 075°13'0 0.0
2018-Feb-19 15:30N 38°59' W 075°13'0 0.0
2018-Feb-19 15:00N 38°59' W 075°13'0 0.0
2018-Feb-19 14:30N 38°59' W 075°13'0 0.1
2018-Feb-19 14:00N 38°59' W 075°13'0 0.1
2018-Feb-19 13:30N 38°59' W 075°13'0 0.1
2018-Feb-19 13:00N 38°59' W 075°13'0 0.0
2018-Feb-19 12:30N 38°59' W 075°13'0 0.3
2018-Feb-19 12:00N 38°59' W 075°13'0 0.2
2018-Feb-19 11:30N 38°59' W 075°13'0 0.2
2018-Feb-19 11:00N 38°59' W 075°13'0 0.0
2018-Feb-19 10:30N 38°59' W 075°13'0 0.0
2018-Feb-19 10:00N 38°59' W 075°13'0 0.0
2018-Feb-19 09:30N 38°59' W 075°13'0 0.0
2018-Feb-19 09:00N 38°59' W 075°13'0 0.0
2018-Feb-19 08:24N 38°59' W 075°13'0 0.1
2018-Feb-19 08:00N 38°59' W 075°13'0 0.0
2018-Feb-19 07:30N 38°59' W 075°13'0 0.0
2018-Feb-19 07:00N 38°59' W 075°13'0 0.1
2018-Feb-19 06:30N 38°59' W 075°13'0 0.4
2018-Feb-19 06:00N 38°59' W 075°13'0 0.1
2018-Feb-19 05:27N 38°59' W 075°13'0 0.0
2018-Feb-19 04:27N 38°59' W 075°13'0 0.0
2018-Feb-19 03:57N 38°59' W 075°13'0 0.0
2018-Feb-19 03:30N 38°59' W 075°13'0 0.0
2018-Feb-19 02:45N 38°59' W 075°13'0 0.0
2018-Feb-19 02:27N 38°59' W 075°13'0 0.1
2018-Feb-19 01:57N 38°59' W 075°13'0 0.0
2018-Feb-19 01:30N 38°59' W 075°13'0 0.1
2018-Feb-19 01:00N 38°59' W 075°13'0 0.5
2018-Feb-19 00:30N 38°59' W 075°13'0 0.3
2018-Feb-19 00:00N 38°59' W 075°13'0 0.1
2018-Feb-18 23:30N 38°59' W 075°13'0 0.1
2018-Feb-18 23:00N 38°59' W 075°13'0 0.0
2018-Feb-18 22:30N 38°59' W 075°13'0 0.0
2018-Feb-18 22:00N 38°59' W 075°13'0 0.1
2018-Feb-18 21:27N 38°59' W 075°13'0 0.2
2018-Feb-18 21:00N 38°59' W 075°13'0 0.1
2018-Feb-18 20:30N 38°59' W 075°13'0 0.0
2018-Feb-18 19:59N 38°59' W 075°13'0 0.0
2018-Feb-18 19:26N 38°59' W 075°13'0 0.0
2018-Feb-18 18:59N 38°59' W 075°13'0 0.0
2018-Feb-18 18:29N 38°59' W 075°13'0 0.0
2018-Feb-18 17:59N 38°59' W 075°13'0 0.1
2018-Feb-18 17:29N 38°59' W 075°13'0 0.4
2018-Feb-18 16:59N 38°59' W 075°13'0 0.1
2018-Feb-18 15:38N 38°59' W 075°13'0 0.1
2018-Feb-18 15:29N 38°59' W 075°13'0 0.0
2018-Feb-18 14:56N 38°59' W 075°13'0 0.0
2018-Feb-18 14:23N 38°59' W 075°13'0 0.0
2018-Feb-18 13:59N 38°59' W 075°13'0 0.0
2018-Feb-18 13:29N 38°59' W 075°13'0 0.0
2018-Feb-18 12:59N 38°59' W 075°13'0 0.2
2018-Feb-18 12:26N 38°59' W 075°13'0 0.2
2018-Feb-18 11:59N 38°59' W 075°13'0 0.3
2018-Feb-18 11:29N 38°59' W 075°13'0 0.2
2018-Feb-18 10:59N 38°59' W 075°13'0 0.0
2018-Feb-18 10:29N 38°59' W 075°13'0 0.1
2018-Feb-18 09:56N 38°59' W 075°13'0 0.0
2018-Feb-18 09:29N 38°59' W 075°13'0 0.0
2018-Feb-18 08:59N 38°59' W 075°13'0 0.0
2018-Feb-18 08:29N 38°59' W 075°13'0 0.1
2018-Feb-18 07:59N 38°59' W 075°13'0 0.1
2018-Feb-18 07:29N 38°59' W 075°13'0 0.1
2018-Feb-18 06:56N 38°59' W 075°13'0 0.0
2018-Feb-18 06:29N 38°59' W 075°13'0 0.0
2018-Feb-18 05:59N 38°59' W 075°13'0 0.1
2018-Feb-18 05:26N 38°59' W 075°13'0 0.4
2018-Feb-18 04:59N 38°59' W 075°13'0 0.2
2018-Feb-18 04:29N 38°59' W 075°13'0 0.0
2018-Feb-18 03:50N 38°59' W 075°13'0 0.0
2018-Feb-18 03:29N 38°59' W 075°13'0 0.1
2018-Feb-18 02:59N 38°59' W 075°13'0 0.6
2018-Feb-18 02:30N 38°59' W 075°13'2 4.2
2018-Feb-18 02:01N 38°57' W 075°11'3 6.3
2018-Feb-18 01:30N 38°55' W 075°09'  
2018-Feb-13 03:10N 26°06' W 079°23'  
Track history (hours):
 
Tides and Currents Weather Stations Pressure Air Temp Water Temp Dewpoint Dewpoint Depression Visibility Wind Speed Wind Dir Waves Ship Positions

Esther Spirit

Last reported at 2018-Feb-22 23:00 UTC. Time now 2018-Feb-22 23:02 UTC.
Position N 39°35' W 075°35'.

Length 249 m; draft 8.5 m.

Type: Tanker. MMSI: 311646000.

Date/timePositionNaut miles runAvg speedWind from/ knotsBaromVisibWave heightAir tempDewpointWater temp
2018-Feb-22 23:00N 39°35' W 075°35'3 5.8
2018-Feb-22 22:30N 39°33' W 075°32'3 5.4
2018-Feb-22 22:00N 39°30' W 075°33'3 6.8
2018-Feb-22 21:30N 39°27' W 075°33'5 9.3
2018-Feb-22 21:00N 39°23' W 075°29'5 9.8
2018-Feb-22 20:30N 39°20' W 075°25'5 9.8
2018-Feb-22 20:00N 39°16' W 075°20'5 9.6
2018-Feb-22 19:30N 39°12' W 075°17'5 9.6
2018-Feb-22 19:00N 39°08' W 075°14'612.4
2018-Feb-22 18:30N 39°03' W 075°10'714.4
2018-Feb-22 18:00N 38°56' W 075°06'3 5.4
2018-Feb-22 17:30N 38°54' W 075°09'511.1
2018-Feb-22 17:00N 38°59' W 075°13'0 0.8
2018-Feb-22 16:26N 38°59' W 075°13'0 0.1
2018-Feb-22 15:59N 38°59' W 075°13'0 0.1
2018-Feb-22 15:29N 38°59' W 075°13'0 0.1
2018-Feb-22 14:59N 38°59' W 075°13'0 0.0
2018-Feb-22 14:29N 38°59' W 075°13'0 0.3
2018-Feb-22 13:56N 38°59' W 075°13'0 0.2
2018-Feb-22 13:29N 38°59' W 075°13'0 0.1
2018-Feb-22 12:59N 38°59' W 075°13'0 0.1
2018-Feb-22 12:29N 38°59' W 075°13'0 0.0
2018-Feb-22 11:56N 38°59' W 075°13'0 0.0
2018-Feb-22 11:26N 38°59' W 075°13'0 0.0
2018-Feb-22 10:59N 38°59' W 075°13'0 0.0
2018-Feb-22 10:26N 38°59' W 075°13'0 0.0
2018-Feb-22 09:59N 38°59' W 075°13'0 0.0
2018-Feb-22 09:23N 38°59' W 075°13'0 0.0
2018-Feb-22 08:59N 38°59' W 075°13'0 0.1
2018-Feb-22 08:29N 38°59' W 075°13'0 0.4
2018-Feb-22 07:59N 38°59' W 075°13'0 0.2
2018-Feb-22 07:29N 38°59' W 075°13'0 0.1
2018-Feb-22 06:56N 38°59' W 075°13'0 0.0
2018-Feb-22 04:35N 38°59' W 075°13'0 0.0
2018-Feb-22 04:17N 38°59' W 075°13'0 0.1
2018-Feb-22 03:59N 38°59' W 075°13'0 0.0
2018-Feb-22 03:02N 38°59' W 075°13'0 0.0
2018-Feb-22 02:59N 38°59' W 075°13'0 0.1
2018-Feb-22 02:20N 38°59' W 075°13'0 0.3
2018-Feb-22 01:50N 38°59' W 075°13'0 0.3
2018-Feb-22 01:29N 38°59' W 075°13'0 0.1
2018-Feb-22 00:59N 38°59' W 075°13'0 0.1
2018-Feb-22 00:29N 38°59' W 075°13'0 0.0
2018-Feb-21 23:59N 38°59' W 075°13'0 0.0
2018-Feb-21 23:29N 38°59' W 075°13'0 0.0
2018-Feb-21 22:59N 38°59' W 075°13'0 0.1
2018-Feb-21 22:29N 38°59' W 075°13'0 0.0
2018-Feb-21 21:56N 38°59' W 075°13'0 0.0
2018-Feb-21 21:29N 38°59' W 075°13'0 0.0
2018-Feb-21 20:59N 38°59' W 075°13'0 0.1
2018-Feb-21 20:20N 38°59' W 075°13'0 0.1
2018-Feb-21 19:20N 38°59' W 075°13'0 0.2
2018-Feb-21 18:59N 38°59' W 075°13'0 0.1
2018-Feb-21 18:26N 38°59' W 075°13'0 0.0
2018-Feb-21 17:56N 38°59' W 075°13'0 0.0
2018-Feb-21 13:34N 38°59' W 075°13'0 0.3
2018-Feb-21 13:28N 38°59' W 075°13'0 0.1
2018-Feb-21 12:43N 38°59' W 075°13'0 0.3
2018-Feb-21 12:28N 38°59' W 075°13'0 0.1
2018-Feb-21 11:58N 38°59' W 075°13'0 0.1
2018-Feb-21 11:25N 38°59' W 075°13'0 0.1
2018-Feb-21 10:58N 38°59' W 075°13'0 0.0
2018-Feb-21 10:28N 38°59' W 075°13'0 0.0
2018-Feb-21 09:58N 38°59' W 075°13'0 0.1
2018-Feb-21 09:28N 38°59' W 075°13'0 0.0
2018-Feb-21 08:58N 38°59' W 075°13'0 0.0
2018-Feb-21 08:28N 38°59' W 075°13'0 0.2
2018-Feb-21 07:52N 38°59' W 075°13'0 0.4
2018-Feb-21 07:25N 38°59' W 075°13'0 0.1
2018-Feb-21 06:10N 38°59' W 075°13'0 0.0
2018-Feb-21 03:40N 38°59' W 075°13'0 0.1
2018-Feb-21 03:28N 38°59' W 075°13'0 0.0
2018-Feb-21 02:55N 38°59' W 075°13'0 0.0
2018-Feb-21 02:10N 38°59' W 075°13'0 0.1
2018-Feb-21 01:55N 38°59' W 075°13'0 0.1
2018-Feb-21 01:25N 38°59' W 075°13'0 0.3
2018-Feb-21 00:52N 38°59' W 075°13'0 0.2
2018-Feb-21 00:10N 38°59' W 075°13'0 0.1
2018-Feb-20 23:58N 38°59' W 075°13'0 0.0
2018-Feb-20 23:28N 38°59' W 075°13'0 0.1
2018-Feb-20 22:58N 38°59' W 075°13'0 0.0
2018-Feb-20 22:28N 38°59' W 075°13'0 0.0
2018-Feb-20 21:58N 38°59' W 075°13'0 0.0
2018-Feb-20 21:28N 38°59' W 075°13'0 0.1
2018-Feb-20 20:55N 38°59' W 075°13'0 0.0
2018-Feb-20 20:28N 38°59' W 075°13'0 0.1
2018-Feb-20 19:58N 38°59' W 075°13'0 0.1
2018-Feb-20 19:10N 38°59' W 075°13'0 0.4
2018-Feb-20 18:55N 38°59' W 075°13'0 0.2
2018-Feb-20 18:28N 38°59' W 075°13'0 0.0
2018-Feb-20 17:01N 38°59' W 075°13'0 0.0
2018-Feb-20 16:58N 38°59' W 075°13'0 0.0
2018-Feb-20 15:28N 38°59' W 075°13'0 0.0
2018-Feb-20 14:58N 38°59' W 075°13'0 0.1
2018-Feb-20 14:13N 38°59' W 075°13'0 0.2
2018-Feb-20 13:58N 38°59' W 075°13'0 0.0
2018-Feb-20 13:10N 38°59' W 075°13'0 0.2
2018-Feb-20 12:55N 38°59' W 075°13'0 0.3
2018-Feb-20 12:25N 38°59' W 075°13'0 0.1
2018-Feb-20 11:40N 38°59' W 075°13'0 0.0
2018-Feb-20 11:28N 38°59' W 075°13'0 0.1
2018-Feb-20 10:58N 38°59' W 075°13'0 0.1
2018-Feb-20 10:28N 38°59' W 075°13'0 0.0
2018-Feb-20 09:58N 38°59' W 075°13'0 0.0
2018-Feb-20 09:25N 38°59' W 075°13'0 0.1
2018-Feb-20 08:58N 38°59' W 075°13'0 0.0
2018-Feb-20 08:22N 38°59' W 075°13'0 0.0
2018-Feb-20 07:55N 38°59' W 075°13'0 0.0
2018-Feb-20 07:31N 38°59' W 075°13'0 0.1
2018-Feb-20 07:00N 38°59' W 075°13'0 0.2
2018-Feb-20 06:18N 38°59' W 075°13'0 0.3
2018-Feb-20 05:57N 38°59' W 075°13'0 0.0
2018-Feb-20 03:00N 38°59' W 075°13'0 0.0
2018-Feb-20 02:03N 38°59' W 075°13'0 0.0
2018-Feb-20 01:48N 38°59' W 075°13'0 0.0
2018-Feb-20 01:30N 38°59' W 075°13'0 0.1
2018-Feb-19 23:09N 38°59' W 075°13'0 0.1
2018-Feb-19 23:00N 38°59' W 075°13'0 0.1
2018-Feb-19 22:21N 38°59' W 075°13'0 0.0
2018-Feb-19 22:00N 38°59' W 075°13'0 0.0
2018-Feb-19 21:18N 38°59' W 075°13'0 0.1
2018-Feb-19 21:00N 38°59' W 075°13'0 0.0
2018-Feb-19 20:30N 38°59' W 075°13'0 0.0
2018-Feb-19 20:00N 38°59' W 075°13'0 0.0
2018-Feb-19 19:30N 38°59' W 075°13'0 0.0
2018-Feb-19 18:57N 38°59' W 075°13'0 0.2
2018-Feb-19 17:09N 38°59' W 075°13'0 0.1
2018-Feb-19 16:48N 38°59' W 075°13'0 0.0
2018-Feb-19 16:24N 38°59' W 075°13'0 0.0
2018-Feb-19 15:54N 38°59' W 075°13'0 0.0
2018-Feb-19 15:30N 38°59' W 075°13'0 0.0
2018-Feb-19 15:00N 38°59' W 075°13'0 0.0
2018-Feb-19 14:30N 38°59' W 075°13'0 0.1
2018-Feb-19 14:00N 38°59' W 075°13'0 0.1
2018-Feb-19 13:30N 38°59' W 075°13'0 0.1
2018-Feb-19 13:00N 38°59' W 075°13'0 0.0
2018-Feb-19 12:30N 38°59' W 075°13'0 0.3
2018-Feb-19 12:00N 38°59' W 075°13'0 0.2
2018-Feb-19 11:30N 38°59' W 075°13'0 0.2
2018-Feb-19 11:00N 38°59' W 075°13'0 0.0
2018-Feb-19 10:30N 38°59' W 075°13'0 0.0
2018-Feb-19 10:00N 38°59' W 075°13'0 0.0
2018-Feb-19 09:30N 38°59' W 075°13'0 0.0
2018-Feb-19 09:00N 38°59' W 075°13'0 0.0
2018-Feb-19 08:24N 38°59' W 075°13'0 0.1
2018-Feb-19 08:00N 38°59' W 075°13'0 0.0
2018-Feb-19 07:30N 38°59' W 075°13'0 0.0
2018-Feb-19 07:00N 38°59' W 075°13'0 0.1
2018-Feb-19 06:30N 38°59' W 075°13'0 0.4
2018-Feb-19 06:00N 38°59' W 075°13'0 0.1
2018-Feb-19 05:27N 38°59' W 075°13'0 0.0
2018-Feb-19 04:27N 38°59' W 075°13'0 0.0
2018-Feb-19 03:57N 38°59' W 075°13'0 0.0
2018-Feb-19 03:30N 38°59' W 075°13'0 0.0
2018-Feb-19 02:45N 38°59' W 075°13'0 0.0
2018-Feb-19 02:27N 38°59' W 075°13'0 0.1
2018-Feb-19 01:57N 38°59' W 075°13'0 0.0
2018-Feb-19 01:30N 38°59' W 075°13'0 0.1
2018-Feb-19 01:00N 38°59' W 075°13'0 0.5
2018-Feb-19 00:30N 38°59' W 075°13'0 0.3
2018-Feb-19 00:00N 38°59' W 075°13'0 0.1
2018-Feb-18 23:30N 38°59' W 075°13'0 0.1
2018-Feb-18 23:00N 38°59' W 075°13'0 0.0
2018-Feb-18 22:30N 38°59' W 075°13'0 0.0
2018-Feb-18 22:00N 38°59' W 075°13'0 0.1
2018-Feb-18 21:27N 38°59' W 075°13'0 0.2
2018-Feb-18 21:00N 38°59' W 075°13'0 0.1
2018-Feb-18 20:30N 38°59' W 075°13'0 0.0
2018-Feb-18 19:59N 38°59' W 075°13'0 0.0
2018-Feb-18 19:26N 38°59' W 075°13'0 0.0
2018-Feb-18 18:59N 38°59' W 075°13'0 0.0
2018-Feb-18 18:29N 38°59' W 075°13'0 0.0
2018-Feb-18 17:59N 38°59' W 075°13'0 0.1
2018-Feb-18 17:29N 38°59' W 075°13'0 0.4
2018-Feb-18 16:59N 38°59' W 075°13'0 0.1
2018-Feb-18 15:38N 38°59' W 075°13'0 0.1
2018-Feb-18 15:29N 38°59' W 075°13'0 0.0
2018-Feb-18 14:56N 38°59' W 075°13'0 0.0
2018-Feb-18 14:23N 38°59' W 075°13'0 0.0
2018-Feb-18 13:59N 38°59' W 075°13'0 0.0
2018-Feb-18 13:29N 38°59' W 075°13'0 0.0
2018-Feb-18 12:59N 38°59' W 075°13'0 0.2
2018-Feb-18 12:26N 38°59' W 075°13'0 0.2
2018-Feb-18 11:59N 38°59' W 075°13'0 0.3
2018-Feb-18 11:29N 38°59' W 075°13'0 0.2
2018-Feb-18 10:59N 38°59' W 075°13'0 0.0
2018-Feb-18 10:29N 38°59' W 075°13'0 0.1
2018-Feb-18 09:56N 38°59' W 075°13'0 0.0
2018-Feb-18 09:29N 38°59' W 075°13'0 0.0
2018-Feb-18 08:59N 38°59' W 075°13'0 0.0
2018-Feb-18 08:29N 38°59' W 075°13'0 0.1
2018-Feb-18 07:59N 38°59' W 075°13'0 0.1
2018-Feb-18 07:29N 38°59' W 075°13'0 0.1
2018-Feb-18 06:56N 38°59' W 075°13'0 0.0
2018-Feb-18 06:29N 38°59' W 075°13'0 0.0
2018-Feb-18 05:59N 38°59' W 075°13'0 0.1
2018-Feb-18 05:26N 38°59' W 075°13'0 0.4
2018-Feb-18 04:59N 38°59' W 075°13'0 0.2
2018-Feb-18 04:29N 38°59' W 075°13'0 0.0
2018-Feb-18 03:50N 38°59' W 075°13'0 0.0
2018-Feb-18 03:29N 38°59' W 075°13'0 0.1
2018-Feb-18 02:59N 38°59' W 075°13'0 0.6
2018-Feb-18 02:30N 38°59' W 075°13'2 4.2
2018-Feb-18 02:01N 38°57' W 075°11'3 6.3
2018-Feb-18 01:30N 38°55' W 075°09'  
2018-Feb-13 03:10N 26°06' W 079°23'  

Dump ship's entire track history